sensor_id;sensor_type;location;lat;lon;timestamp;P1;durP1;ratioP1;P2;durP2;ratioP2
55493;SDS011;41355;50.390;19.096;2022-12-13T00:00:06;31.40;;;12.93;;
55493;SDS011;41355;50.390;19.096;2022-12-13T00:02:34;33.83;;;11.30;;
55493;SDS011;41355;50.390;19.096;2022-12-13T00:05:00;40.00;;;13.32;;
55493;SDS011;41355;50.390;19.096;2022-12-13T00:07:26;36.63;;;13.02;;
55493;SDS011;41355;50.390;19.096;2022-12-13T00:09:52;35.40;;;13.02;;
55493;SDS011;41355;50.390;19.096;2022-12-13T00:12:18;54.83;;;19.88;;
55493;SDS011;41355;50.390;19.096;2022-12-13T00:14:44;32.92;;;13.15;;
55493;SDS011;41355;50.390;19.096;2022-12-13T00:17:10;23.05;;;9.43;;
55493;SDS011;41355;50.390;19.096;2022-12-13T00:19:36;26.98;;;10.38;;
55493;SDS011;41355;50.390;19.096;2022-12-13T00:22:02;29.58;;;10.45;;
55493;SDS011;41355;50.390;19.096;2022-12-13T00:24:28;43.28;;;15.93;;
55493;SDS011;41355;50.390;19.096;2022-12-13T00:26:54;38.60;;;13.73;;
55493;SDS011;41355;50.390;19.096;2022-12-13T00:29:20;34.22;;;12.52;;
55493;SDS011;41355;50.390;19.096;2022-12-13T00:31:46;14.77;;;6.82;;
55493;SDS011;41355;50.390;19.096;2022-12-13T00:34:12;28.30;;;10.63;;
55493;SDS011;41355;50.390;19.096;2022-12-13T00:36:38;32.08;;;10.50;;
55493;SDS011;41355;50.390;19.096;2022-12-13T00:39:04;33.50;;;9.18;;
55493;SDS011;41355;50.390;19.096;2022-12-13T00:41:32;29.38;;;11.00;;
55493;SDS011;41355;50.390;19.096;2022-12-13T00:43:58;13.95;;;5.55;;
55493;SDS011;41355;50.390;19.096;2022-12-13T00:46:25;25.40;;;8.95;;
55493;SDS011;41355;50.390;19.096;2022-12-13T00:48:52;19.38;;;6.80;;
55493;SDS011;41355;50.390;19.096;2022-12-13T00:51:19;20.52;;;7.28;;
55493;SDS011;41355;50.390;19.096;2022-12-13T00:53:45;24.67;;;8.20;;
55493;SDS011;41355;50.390;19.096;2022-12-13T00:56:12;15.43;;;6.05;;
55493;SDS011;41355;50.390;19.096;2022-12-13T00:58:39;19.75;;;7.45;;
55493;SDS011;41355;50.390;19.096;2022-12-13T01:01:06;18.10;;;6.20;;
55493;SDS011;41355;50.390;19.096;2022-12-13T01:03:33;24.85;;;8.95;;
55493;SDS011;41355;50.390;19.096;2022-12-13T01:05:59;25.80;;;8.88;;
55493;SDS011;41355;50.390;19.096;2022-12-13T01:08:25;35.58;;;11.23;;
55493;SDS011;41355;50.390;19.096;2022-12-13T01:10:51;30.27;;;8.52;;
55493;SDS011;41355;50.390;19.096;2022-12-13T01:13:18;29.17;;;9.80;;
55493;SDS011;41355;50.390;19.096;2022-12-13T01:15:44;18.25;;;7.38;;
55493;SDS011;41355;50.390;19.096;2022-12-13T01:18:10;27.95;;;7.72;;
55493;SDS011;41355;50.390;19.096;2022-12-13T01:20:37;30.65;;;8.90;;
55493;SDS011;41355;50.390;19.096;2022-12-13T01:23:04;26.83;;;9.02;;
55493;SDS011;41355;50.390;19.096;2022-12-13T01:25:30;24.58;;;8.02;;
55493;SDS011;41355;50.390;19.096;2022-12-13T01:27:57;16.38;;;6.68;;
55493;SDS011;41355;50.390;19.096;2022-12-13T01:30:24;25.33;;;7.68;;
55493;SDS011;41355;50.390;19.096;2022-12-13T01:32:50;35.85;;;11.60;;
55493;SDS011;41355;50.390;19.096;2022-12-13T01:35:17;58.20;;;16.25;;
55493;SDS011;41355;50.390;19.096;2022-12-13T01:37:43;78.00;;;14.27;;
55493;SDS011;41355;50.390;19.096;2022-12-13T01:40:09;74.15;;;15.95;;
55493;SDS011;41355;50.390;19.096;2022-12-13T01:42:36;52.88;;;12.23;;
55493;SDS011;41355;50.390;19.096;2022-12-13T01:45:17;15.55;;;6.63;;
55493;SDS011;41355;50.390;19.096;2022-12-13T01:47:46;67.22;;;13.50;;
55493;SDS011;41355;50.390;19.096;2022-12-13T01:50:22;50.58;;;11.52;;
55493;SDS011;41355;50.390;19.096;2022-12-13T01:52:50;59.33;;;14.70;;
55493;SDS011;41355;50.390;19.096;2022-12-13T01:55:16;52.55;;;10.98;;
55493;SDS011;41355;50.390;19.096;2022-12-13T01:57:43;47.25;;;11.88;;
55493;SDS011;41355;50.390;19.096;2022-12-13T02:00:11;33.75;;;10.10;;
55493;SDS011;41355;50.390;19.096;2022-12-13T02:02:37;54.15;;;13.57;;
55493;SDS011;41355;50.390;19.096;2022-12-13T02:05:10;67.68;;;15.52;;
55493;SDS011;41355;50.390;19.096;2022-12-13T02:07:39;40.40;;;13.35;;
55493;SDS011;41355;50.390;19.096;2022-12-13T02:10:05;23.08;;;7.20;;
55493;SDS011;41355;50.390;19.096;2022-12-13T02:12:33;45.90;;;13.13;;
55493;SDS011;41355;50.390;19.096;2022-12-13T02:15:07;16.80;;;5.18;;
55493;SDS011;41355;50.390;19.096;2022-12-13T02:33:01;41.95;;;14.30;;
55493;SDS011;41355;50.390;19.096;2022-12-13T02:35:44;19.02;;;7.45;;
55493;SDS011;41355;50.390;19.096;2022-12-13T02:40:50;71.80;;;26.02;;
55493;SDS011;41355;50.390;19.096;2022-12-13T02:43:23;54.97;;;18.88;;
55493;SDS011;41355;50.390;19.096;2022-12-13T02:45:52;153.82;;;35.53;;
55493;SDS011;41355;50.390;19.096;2022-12-13T02:48:24;39.97;;;11.65;;
55493;SDS011;41355;50.390;19.096;2022-12-13T02:50:51;60.70;;;14.93;;
55493;SDS011;41355;50.390;19.096;2022-12-13T02:53:18;37.63;;;10.73;;
55493;SDS011;41355;50.390;19.096;2022-12-13T02:55:45;143.98;;;31.48;;
55493;SDS011;41355;50.390;19.096;2022-12-13T02:58:12;100.13;;;27.45;;
55493;SDS011;41355;50.390;19.096;2022-12-13T03:00:43;113.47;;;27.73;;
55493;SDS011;41355;50.390;19.096;2022-12-13T03:11:31;42.70;;;11.43;;
55493;SDS011;41355;50.390;19.096;2022-12-13T03:14:18;39.38;;;12.57;;
55493;SDS011;41355;50.390;19.096;2022-12-13T03:16:45;45.42;;;14.85;;
55493;SDS011;41355;50.390;19.096;2022-12-13T03:19:13;49.85;;;12.98;;
55493;SDS011;41355;50.390;19.096;2022-12-13T03:21:40;30.52;;;8.63;;
55493;SDS011;41355;50.390;19.096;2022-12-13T03:24:07;31.95;;;9.70;;
55493;SDS011;41355;50.390;19.096;2022-12-13T03:26:34;36.60;;;9.65;;
55493;SDS011;41355;50.390;19.096;2022-12-13T03:29:01;50.15;;;14.75;;
55493;SDS011;41355;50.390;19.096;2022-12-13T03:31:27;43.92;;;15.38;;
55493;SDS011;41355;50.390;19.096;2022-12-13T03:33:53;39.90;;;13.38;;
55493;SDS011;41355;50.390;19.096;2022-12-13T03:36:19;51.58;;;13.80;;
55493;SDS011;41355;50.390;19.096;2022-12-13T03:38:46;90.55;;;23.13;;
55493;SDS011;41355;50.390;19.096;2022-12-13T03:41:14;49.33;;;16.27;;
55493;SDS011;41355;50.390;19.096;2022-12-13T03:43:40;80.55;;;18.70;;
55493;SDS011;41355;50.390;19.096;2022-12-13T03:46:07;85.32;;;23.00;;
55493;SDS011;41355;50.390;19.096;2022-12-13T03:48:33;79.55;;;24.08;;
55493;SDS011;41355;50.390;19.096;2022-12-13T03:51:00;83.82;;;23.30;;
55493;SDS011;41355;50.390;19.096;2022-12-13T03:53:26;64.03;;;17.65;;
55493;SDS011;41355;50.390;19.096;2022-12-13T03:55:52;30.58;;;11.73;;
55493;SDS011;41355;50.390;19.096;2022-12-13T03:58:19;45.88;;;15.10;;
55493;SDS011;41355;50.390;19.096;2022-12-13T04:00:45;35.00;;;13.75;;
55493;SDS011;41355;50.390;19.096;2022-12-13T04:03:11;50.40;;;17.90;;
55493;SDS011;41355;50.390;19.096;2022-12-13T04:05:37;25.20;;;8.30;;
55493;SDS011;41355;50.390;19.096;2022-12-13T04:08:03;42.63;;;14.05;;
55493;SDS011;41355;50.390;19.096;2022-12-13T04:10:29;42.08;;;16.27;;
55493;SDS011;41355;50.390;19.096;2022-12-13T04:12:57;141.25;;;33.30;;
55493;SDS011;41355;50.390;19.096;2022-12-13T04:15:41;48.50;;;13.50;;
55493;SDS011;41355;50.390;19.096;2022-12-13T04:18:15;61.03;;;17.52;;
55493;SDS011;41355;50.390;19.096;2022-12-13T04:20:41;37.35;;;12.98;;
55493;SDS011;41355;50.390;19.096;2022-12-13T04:23:09;93.93;;;22.42;;
55493;SDS011;41355;50.390;19.096;2022-12-13T04:25:35;67.47;;;18.92;;
55493;SDS011;41355;50.390;19.096;2022-12-13T04:28:01;34.97;;;13.35;;
55493;SDS011;41355;50.390;19.096;2022-12-13T04:30:27;32.10;;;13.73;;
55493;SDS011;41355;50.390;19.096;2022-12-13T04:32:53;64.35;;;19.20;;
55493;SDS011;41355;50.390;19.096;2022-12-13T04:35:20;41.47;;;11.35;;
55493;SDS011;41355;50.390;19.096;2022-12-13T04:37:47;48.75;;;17.77;;
55493;SDS011;41355;50.390;19.096;2022-12-13T04:40:13;40.65;;;15.48;;
55493;SDS011;41355;50.390;19.096;2022-12-13T04:42:42;37.92;;;11.68;;
55493;SDS011;41355;50.390;19.096;2022-12-13T04:45:08;27.58;;;11.20;;
55493;SDS011;41355;50.390;19.096;2022-12-13T04:47:34;32.45;;;10.77;;
55493;SDS011;41355;50.390;19.096;2022-12-13T04:50:00;49.38;;;17.02;;
55493;SDS011;41355;50.390;19.096;2022-12-13T04:52:26;47.97;;;17.48;;
55493;SDS011;41355;50.390;19.096;2022-12-13T04:54:52;183.38;;;62.42;;
55493;SDS011;41355;50.390;19.096;2022-12-13T04:57:18;76.53;;;27.92;;
55493;SDS011;41355;50.390;19.096;2022-12-13T04:59:44;33.95;;;12.95;;
55493;SDS011;41355;50.390;19.096;2022-12-13T05:02:11;29.10;;;11.90;;
55493;SDS011;41355;50.390;19.096;2022-12-13T05:04:37;39.70;;;17.45;;
55493;SDS011;41355;50.390;19.096;2022-12-13T05:07:03;24.15;;;9.60;;
55493;SDS011;41355;50.390;19.096;2022-12-13T05:09:29;37.78;;;15.48;;
55493;SDS011;41355;50.390;19.096;2022-12-13T05:11:55;49.72;;;19.73;;
55493;SDS011;41355;50.390;19.096;2022-12-13T05:14:21;70.22;;;24.08;;
55493;SDS011;41355;50.390;19.096;2022-12-13T05:16:47;31.77;;;8.10;;
55493;SDS011;41355;50.390;19.096;2022-12-13T05:19:13;42.25;;;17.20;;
55493;SDS011;41355;50.390;19.096;2022-12-13T05:21:39;21.95;;;10.30;;
55493;SDS011;41355;50.390;19.096;2022-12-13T05:24:06;93.15;;;34.13;;
55493;SDS011;41355;50.390;19.096;2022-12-13T05:26:32;27.80;;;11.60;;
55493;SDS011;41355;50.390;19.096;2022-12-13T05:28:58;26.45;;;10.75;;
55493;SDS011;41355;50.390;19.096;2022-12-13T05:31:24;70.93;;;24.05;;
55493;SDS011;41355;50.390;19.096;2022-12-13T05:33:50;51.15;;;14.55;;
55493;SDS011;41355;50.390;19.096;2022-12-13T05:36:17;60.17;;;21.13;;
55493;SDS011;41355;50.390;19.096;2022-12-13T05:38:43;19.58;;;8.48;;
55493;SDS011;41355;50.390;19.096;2022-12-13T05:41:14;32.28;;;13.50;;
55493;SDS011;41355;50.390;19.096;2022-12-13T05:43:41;21.05;;;10.13;;
55493;SDS011;41355;50.390;19.096;2022-12-13T05:46:07;25.33;;;10.20;;
55493;SDS011;41355;50.390;19.096;2022-12-13T05:48:33;14.15;;;5.68;;
55493;SDS011;41355;50.390;19.096;2022-12-13T05:50:59;19.48;;;8.95;;
55493;SDS011;41355;50.390;19.096;2022-12-13T05:53:25;24.45;;;11.00;;
55493;SDS011;41355;50.390;19.096;2022-12-13T05:55:51;26.00;;;10.05;;
55493;SDS011;41355;50.390;19.096;2022-12-13T05:58:17;14.32;;;6.28;;
55493;SDS011;41355;50.390;19.096;2022-12-13T06:00:43;25.00;;;10.65;;
55493;SDS011;41355;50.390;19.096;2022-12-13T06:03:10;16.13;;;6.75;;
55493;SDS011;41355;50.390;19.096;2022-12-13T06:05:36;47.90;;;14.90;;
55493;SDS011;41355;50.390;19.096;2022-12-13T06:08:02;17.48;;;8.45;;
55493;SDS011;41355;50.390;19.096;2022-12-13T06:10:28;18.80;;;6.57;;
55493;SDS011;41355;50.390;19.096;2022-12-13T06:12:54;43.05;;;16.13;;
55493;SDS011;41355;50.390;19.096;2022-12-13T06:15:20;33.10;;;15.45;;
55493;SDS011;41355;50.390;19.096;2022-12-13T06:17:46;17.48;;;8.18;;
55493;SDS011;41355;50.390;19.096;2022-12-13T06:20:12;19.38;;;9.05;;
55493;SDS011;41355;50.390;19.096;2022-12-13T06:22:38;31.55;;;12.38;;
55493;SDS011;41355;50.390;19.096;2022-12-13T06:25:04;19.77;;;10.05;;
55493;SDS011;41355;50.390;19.096;2022-12-13T06:27:30;44.20;;;15.63;;
55493;SDS011;41355;50.390;19.096;2022-12-13T06:29:56;45.40;;;18.10;;
55493;SDS011;41355;50.390;19.096;2022-12-13T06:32:25;47.95;;;18.67;;
55493;SDS011;41355;50.390;19.096;2022-12-13T06:34:51;22.02;;;9.93;;
55493;SDS011;41355;50.390;19.096;2022-12-13T06:37:17;33.03;;;12.75;;
55493;SDS011;41355;50.390;19.096;2022-12-13T06:39:43;35.22;;;14.10;;
55493;SDS011;41355;50.390;19.096;2022-12-13T06:42:13;55.53;;;19.35;;
55493;SDS011;41355;50.390;19.096;2022-12-13T06:44:40;76.47;;;17.60;;
55493;SDS011;41355;50.390;19.096;2022-12-13T06:47:06;102.30;;;27.25;;
55493;SDS011;41355;50.390;19.096;2022-12-13T06:49:32;99.82;;;26.80;;
55493;SDS011;41355;50.390;19.096;2022-12-13T06:51:58;79.43;;;26.00;;
55493;SDS011;41355;50.390;19.096;2022-12-13T06:54:24;34.67;;;13.82;;
55493;SDS011;41355;50.390;19.096;2022-12-13T06:56:50;198.32;;;50.08;;
55493;SDS011;41355;50.390;19.096;2022-12-13T06:59:16;82.63;;;23.70;;
55493;SDS011;41355;50.390;19.096;2022-12-13T07:01:42;125.68;;;33.40;;
55493;SDS011;41355;50.390;19.096;2022-12-13T07:04:09;108.35;;;30.55;;
55493;SDS011;41355;50.390;19.096;2022-12-13T07:06:36;196.57;;;44.10;;
55493;SDS011;41355;50.390;19.096;2022-12-13T07:09:03;71.47;;;29.38;;
55493;SDS011;41355;50.390;19.096;2022-12-13T07:11:30;127.53;;;31.15;;
55493;SDS011;41355;50.390;19.096;2022-12-13T07:13:57;78.15;;;23.95;;
55493;SDS011;41355;50.390;19.096;2022-12-13T07:16:23;107.10;;;33.42;;
55493;SDS011;41355;50.390;19.096;2022-12-13T07:18:53;280.65;;;61.17;;
55493;SDS011;41355;50.390;19.096;2022-12-13T07:21:19;104.97;;;26.42;;
55493;SDS011;41355;50.390;19.096;2022-12-13T07:23:45;168.88;;;39.50;;
55493;SDS011;41355;50.390;19.096;2022-12-13T07:26:11;44.00;;;16.02;;
55493;SDS011;41355;50.390;19.096;2022-12-13T07:28:37;237.00;;;56.05;;
55493;SDS011;41355;50.390;19.096;2022-12-13T07:31:04;183.07;;;44.97;;
55493;SDS011;41355;50.390;19.096;2022-12-13T07:33:30;124.80;;;29.30;;
55493;SDS011;41355;50.390;19.096;2022-12-13T07:36:07;104.63;;;31.30;;
55493;SDS011;41355;50.390;19.096;2022-12-13T07:38:33;104.22;;;34.35;;
55493;SDS011;41355;50.390;19.096;2022-12-13T07:41:00;64.10;;;20.85;;
55493;SDS011;41355;50.390;19.096;2022-12-13T07:43:26;70.47;;;20.23;;
55493;SDS011;41355;50.390;19.096;2022-12-13T07:45:53;48.67;;;13.93;;
55493;SDS011;41355;50.390;19.096;2022-12-13T07:48:19;145.40;;;40.90;;
55493;SDS011;41355;50.390;19.096;2022-12-13T07:50:45;113.35;;;32.63;;
55493;SDS011;41355;50.390;19.096;2022-12-13T07:53:11;65.95;;;20.77;;
55493;SDS011;41355;50.390;19.096;2022-12-13T07:55:38;29.45;;;10.80;;
55493;SDS011;41355;50.390;19.096;2022-12-13T07:58:05;76.72;;;22.77;;
55493;SDS011;41355;50.390;19.096;2022-12-13T08:00:31;26.35;;;10.32;;
55493;SDS011;41355;50.390;19.096;2022-12-13T08:02:57;86.82;;;23.52;;
55493;SDS011;41355;50.390;19.096;2022-12-13T08:05:23;81.65;;;21.08;;
55493;SDS011;41355;50.390;19.096;2022-12-13T08:07:49;29.95;;;9.73;;
55493;SDS011;41355;50.390;19.096;2022-12-13T08:10:15;33.03;;;10.65;;
55493;SDS011;41355;50.390;19.096;2022-12-13T08:12:41;40.88;;;12.40;;
55493;SDS011;41355;50.390;19.096;2022-12-13T08:15:07;17.88;;;7.47;;
55493;SDS011;41355;50.390;19.096;2022-12-13T08:17:34;336.02;;;93.15;;
55493;SDS011;41355;50.390;19.096;2022-12-13T08:20:00;169.80;;;56.83;;
55493;SDS011;41355;50.390;19.096;2022-12-13T08:22:26;12.80;;;4.22;;
55493;SDS011;41355;50.390;19.096;2022-12-13T08:24:52;48.65;;;13.27;;
55493;SDS011;41355;50.390;19.096;2022-12-13T08:27:18;23.38;;;8.25;;
55493;SDS011;41355;50.390;19.096;2022-12-13T08:29:44;19.45;;;6.50;;
55493;SDS011;41355;50.390;19.096;2022-12-13T08:32:10;56.72;;;17.30;;
55493;SDS011;41355;50.390;19.096;2022-12-13T08:34:37;19.30;;;7.00;;
55493;SDS011;41355;50.390;19.096;2022-12-13T08:37:04;51.45;;;14.07;;
55493;SDS011;41355;50.390;19.096;2022-12-13T08:39:30;75.18;;;21.08;;
55493;SDS011;41355;50.390;19.096;2022-12-13T08:41:58;65.78;;;19.73;;
55493;SDS011;41355;50.390;19.096;2022-12-13T08:44:24;30.00;;;10.23;;
55493;SDS011;41355;50.390;19.096;2022-12-13T08:46:50;37.53;;;15.38;;
55493;SDS011;41355;50.390;19.096;2022-12-13T08:49:16;32.67;;;11.85;;
55493;SDS011;41355;50.390;19.096;2022-12-13T08:51:42;30.25;;;11.00;;
55493;SDS011;41355;50.390;19.096;2022-12-13T08:54:08;23.35;;;8.38;;
55493;SDS011;41355;50.390;19.096;2022-12-13T08:56:34;168.00;;;43.45;;
55493;SDS011;41355;50.390;19.096;2022-12-13T08:59:00;70.68;;;20.83;;
55493;SDS011;41355;50.390;19.096;2022-12-13T09:01:27;34.90;;;14.70;;
55493;SDS011;41355;50.390;19.096;2022-12-13T09:03:54;36.90;;;11.48;;
55493;SDS011;41355;50.390;19.096;2022-12-13T09:06:20;67.45;;;21.52;;
55493;SDS011;41355;50.390;19.096;2022-12-13T09:08:46;19.85;;;7.35;;
55493;SDS011;41355;50.390;19.096;2022-12-13T09:11:12;22.17;;;6.65;;
55493;SDS011;41355;50.390;19.096;2022-12-13T09:13:39;33.15;;;10.77;;
55493;SDS011;41355;50.390;19.096;2022-12-13T09:16:06;41.22;;;13.18;;
55493;SDS011;41355;50.390;19.096;2022-12-13T09:18:33;22.25;;;7.10;;
55493;SDS011;41355;50.390;19.096;2022-12-13T09:20:59;15.55;;;7.47;;
55493;SDS011;41355;50.390;19.096;2022-12-13T09:23:25;18.88;;;7.97;;
55493;SDS011;41355;50.390;19.096;2022-12-13T09:25:52;26.02;;;8.98;;
55493;SDS011;41355;50.390;19.096;2022-12-13T09:28:18;82.18;;;25.48;;
55493;SDS011;41355;50.390;19.096;2022-12-13T09:30:44;61.05;;;22.15;;
55493;SDS011;41355;50.390;19.096;2022-12-13T09:33:10;44.45;;;16.30;;
55493;SDS011;41355;50.390;19.096;2022-12-13T09:35:37;28.80;;;10.98;;
55493;SDS011;41355;50.390;19.096;2022-12-13T09:38:03;40.78;;;12.93;;
55493;SDS011;41355;50.390;19.096;2022-12-13T09:40:30;41.22;;;13.15;;
55493;SDS011;41355;50.390;19.096;2022-12-13T09:42:56;19.95;;;7.45;;
55493;SDS011;41355;50.390;19.096;2022-12-13T09:45:22;37.35;;;13.52;;
55493;SDS011;41355;50.390;19.096;2022-12-13T09:47:49;32.45;;;10.55;;
55493;SDS011;41355;50.390;19.096;2022-12-13T09:50:21;24.98;;;8.65;;
55493;SDS011;41355;50.390;19.096;2022-12-13T09:52:48;43.70;;;14.63;;
55493;SDS011;41355;50.390;19.096;2022-12-13T09:55:19;13.40;;;4.80;;
55493;SDS011;41355;50.390;19.096;2022-12-13T09:57:46;31.15;;;9.70;;
55493;SDS011;41355;50.390;19.096;2022-12-13T10:00:15;16.15;;;6.18;;
55493;SDS011;41355;50.390;19.096;2022-12-13T10:02:54;26.10;;;8.82;;
55493;SDS011;41355;50.390;19.096;2022-12-13T10:05:27;35.75;;;12.90;;
55493;SDS011;41355;50.390;19.096;2022-12-13T10:07:54;7.18;;;3.33;;
55493;SDS011;41355;50.390;19.096;2022-12-13T10:10:21;88.95;;;26.90;;
55493;SDS011;41355;50.390;19.096;2022-12-13T10:15:31;29.08;;;11.45;;
55493;SDS011;41355;50.390;19.096;2022-12-13T10:17:58;47.85;;;19.52;;
55493;SDS011;41355;50.390;19.096;2022-12-13T10:20:27;9.95;;;4.55;;
55493;SDS011;41355;50.390;19.096;2022-12-13T10:22:54;28.08;;;11.07;;
55493;SDS011;41355;50.390;19.096;2022-12-13T10:28:05;45.88;;;17.65;;
55493;SDS011;41355;50.390;19.096;2022-12-13T10:30:37;33.08;;;16.50;;
55493;SDS011;41355;50.390;19.096;2022-12-13T10:33:04;33.15;;;8.85;;
55493;SDS011;41355;50.390;19.096;2022-12-13T10:35:33;45.00;;;17.38;;
55493;SDS011;41355;50.390;19.096;2022-12-13T10:38:25;33.63;;;12.88;;
55493;SDS011;41355;50.390;19.096;2022-12-13T10:40:47;43.70;;;14.40;;
55493;SDS011;41355;50.390;19.096;2022-12-13T10:45:42;76.80;;;21.20;;
55493;SDS011;41355;50.390;19.096;2022-12-13T10:48:18;57.42;;;20.88;;
55493;SDS011;41355;50.390;19.096;2022-12-13T10:50:54;82.05;;;26.13;;
55493;SDS011;41355;50.390;19.096;2022-12-13T10:53:26;116.95;;;32.20;;
55493;SDS011;41355;50.390;19.096;2022-12-13T10:55:55;47.50;;;15.32;;
55493;SDS011;41355;50.390;19.096;2022-12-13T10:58:21;80.72;;;30.23;;
55493;SDS011;41355;50.390;19.096;2022-12-13T11:00:47;112.43;;;30.25;;
55493;SDS011;41355;50.390;19.096;2022-12-13T11:03:35;25.20;;;9.63;;
55493;SDS011;41355;50.390;19.096;2022-12-13T11:06:05;105.05;;;25.83;;
55493;SDS011;41355;50.390;19.096;2022-12-13T11:08:32;49.67;;;18.17;;
55493;SDS011;41355;50.390;19.096;2022-12-13T11:11:01;16.60;;;8.02;;
55493;SDS011;41355;50.390;19.096;2022-12-13T11:13:37;134.90;;;40.58;;
55493;SDS011;41355;50.390;19.096;2022-12-13T11:18:40;45.88;;;17.15;;
55493;SDS011;41355;50.390;19.096;2022-12-13T11:21:07;26.70;;;10.75;;
55493;SDS011;41355;50.390;19.096;2022-12-13T11:23:39;159.30;;;49.08;;
55493;SDS011;41355;50.390;19.096;2022-12-13T11:26:09;26.05;;;11.05;;
55493;SDS011;41355;50.390;19.096;2022-12-13T11:31:14;36.78;;;12.27;;
55493;SDS011;41355;50.390;19.096;2022-12-13T11:33:44;37.28;;;13.52;;
55493;SDS011;41355;50.390;19.096;2022-12-13T11:41:16;39.92;;;16.70;;
55493;SDS011;41355;50.390;19.096;2022-12-13T11:43:49;89.00;;;32.67;;
55493;SDS011;41355;50.390;19.096;2022-12-13T11:46:21;96.78;;;35.38;;
55493;SDS011;41355;50.390;19.096;2022-12-13T11:51:21;46.95;;;19.85;;
55493;SDS011;41355;50.390;19.096;2022-12-13T11:56:22;56.10;;;14.40;;
55493;SDS011;41355;50.390;19.096;2022-12-13T11:59:08;38.38;;;16.13;;
55493;SDS011;41355;50.390;19.096;2022-12-13T12:01:46;45.65;;;19.35;;
55493;SDS011;41355;50.390;19.096;2022-12-13T12:09:25;56.58;;;19.45;;
55493;SDS011;41355;50.390;19.096;2022-12-13T12:12:00;27.15;;;9.45;;
55493;SDS011;41355;50.390;19.096;2022-12-13T12:16:57;30.75;;;11.75;;
55493;SDS011;41355;50.390;19.096;2022-12-13T12:19:29;35.97;;;13.00;;
55493;SDS011;41355;50.390;19.096;2022-12-13T12:27:38;56.83;;;18.20;;
55493;SDS011;41355;50.390;19.096;2022-12-13T12:30:08;42.35;;;16.38;;
55493;SDS011;41355;50.390;19.096;2022-12-13T12:35:34;56.28;;;18.92;;
55493;SDS011;41355;50.390;19.096;2022-12-13T12:45:40;69.28;;;22.13;;
55493;SDS011;41355;50.390;19.096;2022-12-13T12:51:00;51.58;;;15.48;;
55493;SDS011;41355;50.390;19.096;2022-12-13T12:53:37;70.00;;;20.73;;
55493;SDS011;41355;50.390;19.096;2022-12-13T12:58:54;38.80;;;13.82;;
55493;SDS011;41355;50.390;19.096;2022-12-13T13:03:57;179.55;;;48.83;;
55493;SDS011;41355;50.390;19.096;2022-12-13T13:06:28;39.08;;;14.02;;
55493;SDS011;41355;50.390;19.096;2022-12-13T13:09:04;327.75;;;74.63;;
55493;SDS011;41355;50.390;19.096;2022-12-13T13:11:35;44.22;;;13.95;;
55493;SDS011;41355;50.390;19.096;2022-12-13T13:16:47;100.85;;;26.02;;
55493;SDS011;41355;50.390;19.096;2022-12-13T13:21:50;74.63;;;22.35;;
55493;SDS011;41355;50.390;19.096;2022-12-13T13:26:52;115.80;;;31.08;;
55493;SDS011;41355;50.390;19.096;2022-12-13T13:34:31;296.38;;;73.28;;
55493;SDS011;41355;50.390;19.096;2022-12-13T13:36:57;353.02;;;71.30;;
55493;SDS011;41355;50.390;19.096;2022-12-13T13:47:27;52.47;;;18.38;;
55493;SDS011;41355;50.390;19.096;2022-12-13T13:52:25;72.65;;;18.73;;
55493;SDS011;41355;50.390;19.096;2022-12-13T13:55:12;113.97;;;22.83;;
55493;SDS011;41355;50.390;19.096;2022-12-13T14:00:13;40.25;;;11.10;;
55493;SDS011;41355;50.390;19.096;2022-12-13T14:20:52;83.80;;;22.60;;
55493;SDS011;41355;50.390;19.096;2022-12-13T14:28:56;64.47;;;16.80;;
55493;SDS011;41355;50.390;19.096;2022-12-13T14:31:24;26.58;;;8.93;;
55493;SDS011;41355;50.390;19.096;2022-12-13T14:33:51;113.32;;;25.42;;
55493;SDS011;41355;50.390;19.096;2022-12-13T14:36:24;160.65;;;35.90;;
55493;SDS011;41355;50.390;19.096;2022-12-13T14:38:57;105.50;;;28.15;;
55493;SDS011;41355;50.390;19.096;2022-12-13T14:41:24;47.85;;;13.57;;
55493;SDS011;41355;50.390;19.096;2022-12-13T14:43:50;31.83;;;8.98;;
55493;SDS011;41355;50.390;19.096;2022-12-13T14:46:16;31.77;;;10.23;;
55493;SDS011;41355;50.390;19.096;2022-12-13T14:48:49;53.70;;;14.65;;
55493;SDS011;41355;50.390;19.096;2022-12-13T14:51:30;44.70;;;13.65;;
55493;SDS011;41355;50.390;19.096;2022-12-13T14:53:57;47.92;;;16.27;;
55493;SDS011;41355;50.390;19.096;2022-12-13T14:56:23;85.15;;;26.63;;
55493;SDS011;41355;50.390;19.096;2022-12-13T14:58:52;71.90;;;23.38;;
55493;SDS011;41355;50.390;19.096;2022-12-13T15:01:35;59.88;;;16.80;;
55493;SDS011;41355;50.390;19.096;2022-12-13T15:09:15;60.95;;;17.27;;
55493;SDS011;41355;50.390;19.096;2022-12-13T15:11:44;120.53;;;40.50;;
55493;SDS011;41355;50.390;19.096;2022-12-13T15:14:14;114.15;;;29.27;;
55493;SDS011;41355;50.390;19.096;2022-12-13T15:16:45;189.25;;;42.50;;
55493;SDS011;41355;50.390;19.096;2022-12-13T15:19:12;189.55;;;44.33;;
55493;SDS011;41355;50.390;19.096;2022-12-13T15:21:39;151.82;;;34.03;;
55493;SDS011;41355;50.390;19.096;2022-12-13T15:24:05;193.75;;;44.60;;
55493;SDS011;41355;50.390;19.096;2022-12-13T15:26:31;68.88;;;17.67;;
55493;SDS011;41355;50.390;19.096;2022-12-13T15:29:02;51.47;;;15.45;;
55493;SDS011;41355;50.390;19.096;2022-12-13T15:31:30;116.95;;;27.60;;
55493;SDS011;41355;50.390;19.096;2022-12-13T15:34:19;75.10;;;17.05;;
55493;SDS011;41355;50.390;19.096;2022-12-13T15:36:42;68.93;;;21.38;;
55493;SDS011;41355;50.390;19.096;2022-12-13T15:39:09;217.95;;;52.50;;
55493;SDS011;41355;50.390;19.096;2022-12-13T15:41:41;233.98;;;49.45;;
55493;SDS011;41355;50.390;19.096;2022-12-13T15:44:18;247.35;;;49.42;;
55493;SDS011;41355;50.390;19.096;2022-12-13T15:46:49;314.58;;;83.35;;
55493;SDS011;41355;50.390;19.096;2022-12-13T15:49:24;242.68;;;63.08;;
55493;SDS011;41355;50.390;19.096;2022-12-13T15:51:55;871.95;;;229.45;;
55493;SDS011;41355;50.390;19.096;2022-12-13T15:54:21;404.80;;;90.88;;
55493;SDS011;41355;50.390;19.096;2022-12-13T15:57:01;535.33;;;128.32;;
55493;SDS011;41355;50.390;19.096;2022-12-13T15:59:32;475.45;;;118.50;;
55493;SDS011;41355;50.390;19.096;2022-12-13T16:01:59;582.75;;;150.60;;
55493;SDS011;41355;50.390;19.096;2022-12-13T16:04:29;1319.53;;;381.98;;
55493;SDS011;41355;50.390;19.096;2022-12-13T16:06:56;686.88;;;233.10;;
55493;SDS011;41355;50.390;19.096;2022-12-13T16:09:23;743.03;;;221.82;;
55493;SDS011;41355;50.390;19.096;2022-12-13T16:14:33;961.67;;;269.52;;
55493;SDS011;41355;50.390;19.096;2022-12-13T16:17:16;666.90;;;214.32;;
55493;SDS011;41355;50.390;19.096;2022-12-13T16:19:44;377.95;;;101.70;;
55493;SDS011;41355;50.390;19.096;2022-12-13T16:22:10;417.88;;;103.53;;
55493;SDS011;41355;50.390;19.096;2022-12-13T16:24:36;496.52;;;138.57;;
55493;SDS011;41355;50.390;19.096;2022-12-13T16:27:02;383.35;;;101.70;;
55493;SDS011;41355;50.390;19.096;2022-12-13T16:29:28;145.05;;;41.75;;
55493;SDS011;41355;50.390;19.096;2022-12-13T16:31:54;254.88;;;57.13;;